Terminal Aerodrome Forecast
Issued by NWS

Home | Current Version | Previous Version | Text Only | Print | Product List | Glossary Off
Versions: 1 2 3 4 5 6 7 8 9 10 11 12 13 14 15 16 17 18 19 20 21 22 23 24

798
FTUS45 KGGW 121813 RRA
TAFGDV
TAF
KGDV 121813Z 1218/1318 25012KT P6SM SKC
     FM122300 28017G25KT P6SM FEW240
     FM130000 29018G26KT P6SM FEW210 WS020/30050KT
     FM130500 30021G31KT P6SM BKN150=

USA.gov is the U.S. government's official web portal to all federal, state and local government web resources and services.